KLGA/LGA METAR and TAF weather

Enter ICAO airport designator
Station Type Date Time Source
KLGA METAR 2020/02/22 05:51 UTC NOAA

KLGA 220551Z 23011KT 10SM CLR 01/M15 A3032 RMK AO2 SLP267 T00061150 10017 20006 56018


Station Type Date Time Source
KLGA Decoded METAR 2020/02/22 05:51 UTC NOAA

NEW YORK LA GUARDIA AIRPORT , NY, United States (KLGA) 40-47N 73-53W 11M
Feb 22, 2020 - 12:51 AM EST / 2020.02.22 0551 UTC
Wind: from the SW (230 degrees) at 13 MPH (11 KT):0
Visibility: 10 mile(s):0
Sky conditions: clear
Temperature: 33.1 F (0.6 C)
Windchill: 23 F (-5 C):1
Dew Point: 5.0 F (-15.0 C)
Relative Humidity: 29%
Pressure (altimeter): 30.32 in. Hg (1026 hPa)
Pressure tendency: 0.05 inches (1.8 hPa) lower than three hours ago
ob: KLGA 220551Z 23011KT 10SM CLR 01/M15 A3032 RMK AO2 SLP267 T00061150 10017 20006 56018
cycle: 6

Station Type Date Time Source
KLGA TAF 2020/02/22 06:27 UTC NOAA

TAF KLGA 220524Z 2206/2312 26010KT P6SM SKC
FM221500 27012G19KT P6SM SKC
FM222300 24008KT P6SM SKC

Example: see airport list